Time;durP1;ratioP1;P1;durP2;ratioP2;P2;SDS_P1;SDS_P2;PMS_P1;PMS_P2;Temp;Humidity;BMP_temperature;BMP_pressure;BME280_temperature;BME280_humidity;BME280_pressure;Samples;Min_cycle;Max_cycle;Signal;HPM_P1;HPM_P2
2021/04/15 00:00:37;;;;;;;1.83;0.63;;;5.00;90.10;;;;;;5028704;28;20045;-86
2021/04/15 00:03:06;;;;;;;2.15;0.90;;;5.00;90.00;;;;;;5031350;28;20022;-86
2021/04/15 00:05:32;;;;;;;3.63;1.20;;;5.00;90.10;;;;;;5024478;28;20033;-86
2021/04/15 00:07:58;;;;;;;4.28;1.00;;;5.00;90.20;;;;;;5047567;28;20534;-86
2021/04/15 00:10:29;;;;;;;3.17;1.23;;;5.10;90.40;;;;;;5025888;28;20022;-86
2021/04/15 00:12:55;;;;;;;2.13;1.02;;;5.10;90.30;;;;;;5031140;28;20028;-86
2021/04/15 00:15:21;;;;;;;2.00;1.00;;;5.10;90.40;;;;;;5031571;28;20147;-86
2021/04/15 00:17:47;;;;;;;2.28;0.88;;;5.10;90.50;;;;;;5029519;28;20021;-86
2021/04/15 00:20:13;;;;;;;2.85;0.82;;;5.20;90.50;;;;;;5037649;28;20014;-84
2021/04/15 00:22:39;;;;;;;2.22;0.65;;;5.20;90.60;;;;;;5043293;28;20029;-84
2021/04/15 00:25:05;;;;;;;1.63;0.85;;;5.20;90.60;;;;;;5043254;28;20029;-84
2021/04/15 00:27:31;;;;;;;2.00;0.60;;;5.20;90.50;;;;;;5042278;28;20021;-84
2021/04/15 00:29:57;;;;;;;3.00;1.23;;;5.30;90.60;;;;;;5031465;28;20021;-85
2021/04/15 00:32:22;;;;;;;3.05;0.70;;;5.30;90.60;;;;;;5042871;28;20018;-86
2021/04/15 00:34:48;;;;;;;2.33;0.80;;;5.30;90.80;;;;;;5035657;28;20013;-86
2021/04/15 00:37:13;;;;;;;2.70;0.85;;;5.20;90.90;;;;;;5035877;28;20033;-85
2021/04/15 00:39:39;;;;;;;3.83;0.82;;;5.20;91.10;;;;;;5035671;28;20037;-86
2021/04/15 00:42:05;;;;;;;4.32;1.13;;;5.20;91.20;;;;;;5032910;28;20386;-86
2021/04/15 00:44:30;;;;;;;1.85;0.73;;;5.20;91.30;;;;;;5034294;28;20049;-86
2021/04/15 00:47:10;;;;;;;2.08;0.63;;;5.20;91.20;;;;;;5035516;28;20516;-86
2021/04/15 00:49:41;;;;;;;3.08;0.80;;;5.20;91.30;;;;;;5033112;28;20021;-86
2021/04/15 00:52:14;;;;;;;1.63;0.50;;;5.20;91.30;;;;;;5030489;28;20033;-86
2021/04/15 00:55:02;;;;;;;4.78;0.98;;;5.10;91.40;;;;;;5023142;28;20456;-87
2021/04/15 00:57:39;;;;;;;2.50;0.90;;;5.20;91.60;;;;;;5023613;28;20105;-86
2021/04/15 01:00:08;;;;;;;2.45;0.98;;;5.20;91.50;;;;;;5025741;28;20026;-86
2021/04/15 01:02:35;;;;;;;1.30;0.70;;;5.20;91.60;;;;;;5042561;28;20103;-86
2021/04/15 01:05:11;;;;;;;2.35;0.80;;;5.20;91.60;;;;;;5034117;28;20044;-86
2021/04/15 01:07:37;;;;;;;1.95;0.88;;;5.20;91.60;;;;;;5035236;28;20036;-86
2021/04/15 01:10:04;;;;;;;3.33;0.63;;;5.20;91.70;;;;;;5028246;28;20021;-86
2021/04/15 01:13:15;;;;;;;1.05;0.57;;;5.10;91.90;;;;;;5034019;28;20210;-86
2021/04/15 01:15:59;;;;;;;2.15;0.98;;;5.10;92.00;;;;;;5024454;28;20092;-86
2021/04/15 01:19:00;;;;;;;1.48;0.60;;;5.00;92.20;;;;;;5033759;28;20104;-86
2021/04/15 01:21:51;;;;;;;1.27;0.68;;;5.00;92.40;;;;;;5032306;28;20022;-85
2021/04/15 01:24:25;;;;;;;1.83;0.50;;;5.00;92.30;;;;;;5033560;28;20060;-86
2021/04/15 01:27:22;;;;;;;1.60;0.70;;;5.00;92.40;;;;;;5038638;28;20095;-86
2021/04/15 01:30:16;;;;;;;2.05;0.50;;;5.10;92.40;;;;;;5031877;28;20096;-86
2021/04/15 01:32:56;;;;;;;1.40;0.50;;;5.10;92.30;;;;;;5021560;28;20101;-86
2021/04/15 01:35:38;;;;;;;1.00;0.60;;;5.10;92.30;;;;;;5034385;28;20025;-86
2021/04/15 01:38:25;;;;;;;3.22;0.60;;;5.10;92.40;;;;;;5025268;28;20025;-86
2021/04/15 01:41:12;;;;;;;1.65;0.40;;;5.10;92.60;;;;;;5033526;28;20408;-86
2021/04/15 01:43:44;;;;;;;3.10;0.60;;;5.10;92.70;;;;;;5026730;28;20144;-86
2021/04/15 01:46:10;;;;;;;1.73;0.50;;;5.10;92.70;;;;;;5032543;28;20420;-86
2021/04/15 01:48:46;;;;;;;1.30;0.60;;;5.10;92.70;;;;;;5022867;28;20030;-86
2021/04/15 01:51:17;;;;;;;1.85;0.50;;;5.10;93.00;;;;;;5032512;28;20017;-86
2021/04/15 01:53:46;;;;;;;1.00;0.40;;;5.00;93.20;;;;;;5027707;28;20017;-86
2021/04/15 01:56:12;;;;;;;0.80;0.43;;;5.00;93.50;;;;;;5034215;28;20017;-86
2021/04/15 01:58:54;;;;;;;2.35;0.50;;;5.00;93.80;;;;;;5033218;28;20071;-86
2021/04/15 02:01:23;;;;;;;1.08;0.50;;;5.00;93.80;;;;;;5026716;28;20536;-86
2021/04/15 02:03:53;;;;;;;1.40;0.40;;;5.00;93.80;;;;;;5034425;28;20025;-86
2021/04/15 02:06:22;;;;;;;1.20;0.50;;;5.00;93.90;;;;;;5033024;28;20116;-86
2021/04/15 02:08:52;;;;;;;1.50;0.50;;;4.90;94.30;;;;;;5027671;28;20074;-86
2021/04/15 02:11:24;;;;;;;0.98;0.40;;;4.80;94.60;;;;;;5032738;28;20021;-87
2021/04/15 02:13:52;;;;;;;2.65;0.45;;;4.80;94.80;;;;;;5038930;28;20028;-86
2021/04/15 02:16:24;;;;;;;2.25;0.60;;;4.80;94.90;;;;;;5032704;28;20032;-86
2021/04/15 02:19:06;;;;;;;1.60;0.50;;;4.80;95.00;;;;;;5030557;28;20026;-86
2021/04/15 02:21:48;;;;;;;1.48;0.57;;;4.80;95.10;;;;;;5030714;28;20021;-86
2021/04/15 02:24:19;;;;;;;2.17;0.60;;;4.80;95.30;;;;;;5029429;28;20033;-86
2021/04/15 02:26:45;;;;;;;2.55;0.60;;;4.80;95.50;;;;;;5033690;28;20030;-86
2021/04/15 02:29:22;;;;;;;4.15;1.15;;;4.80;95.70;;;;;;5033667;28;20033;-85
2021/04/15 02:32:01;;;;;;;1.95;0.60;;;4.70;96.00;;;;;;5038486;28;20488;-86
2021/04/15 02:34:32;;;;;;;1.33;0.57;;;4.70;96.20;;;;;;5027004;28;20028;-86
2021/04/15 02:37:11;;;;;;;0.90;0.60;;;4.60;96.30;;;;;;5032311;28;20017;-86
2021/04/15 02:39:42;;;;;;;2.40;1.00;;;4.70;96.40;;;;;;5032453;28;20022;-86
2021/04/15 02:42:11;;;;;;;1.45;0.50;;;4.70;96.50;;;;;;5029696;28;20022;-86
2021/04/15 02:44:52;;;;;;;1.70;0.52;;;4.70;96.70;;;;;;5031979;28;20503;-86
2021/04/15 02:47:26;;;;;;;1.58;0.50;;;4.70;96.50;;;;;;5031389;28;20053;-86
2021/04/15 02:49:55;;;;;;;1.85;0.52;;;4.70;96.60;;;;;;5016956;28;20040;-86
2021/04/15 02:52:25;;;;;;;1.50;0.60;;;4.80;96.60;;;;;;5033445;28;20031;-86
2021/04/15 02:54:56;;;;;;;;;;;4.90;96.40;;;;;;5032303;28;20473;-86
2021/04/15 02:57:26;;;;;;;2.97;0.55;;;4.90;96.20;;;;;;5032808;28;19913;-86
2021/04/15 03:00:28;;;;;;;0.70;0.40;;;4.90;96.20;;;;;;5031829;28;20026;-86
2021/04/15 03:03:10;;;;;;;0.68;0.40;;;4.90;96.10;;;;;;4998184;28;20033;-86
2021/04/15 03:05:42;;;;;;;1.83;0.57;;;4.90;96.10;;;;;;5022117;28;20032;-86
2021/04/15 03:08:10;;;;;;;1.45;0.40;;;4.80;96.30;;;;;;5038157;28;20125;-85
2021/04/15 03:10:44;;;;;;;1.58;0.80;;;4.80;96.50;;;;;;5033110;28;20527;-86
2021/04/15 03:13:19;;;;;;;2.20;0.80;;;4.80;96.70;;;;;;5026345;28;20025;-86
2021/04/15 03:15:49;;;;;;;1.23;0.70;;;4.80;96.70;;;;;;5024791;28;20481;-86
2021/04/15 03:18:20;;;;;;;1.95;0.70;;;4.80;96.70;;;;;;5031896;28;20075;-86
2021/04/15 03:21:23;;;;;;;1.52;0.70;;;4.90;96.70;;;;;;5032888;28;20477;-86
2021/04/15 03:23:56;;;;;;;1.60;0.40;;;4.80;96.60;;;;;;5002746;28;20037;-86
2021/04/15 03:26:22;;;;;;;3.20;0.43;;;4.80;96.70;;;;;;5031334;28;20038;-86
2021/04/15 03:29:03;;;;;;;1.05;0.40;;;4.70;96.80;;;;;;5031525;28;20025;-87
2021/04/15 03:31:31;;;;;;;0.63;0.45;;;4.70;96.90;;;;;;5045718;28;20025;-86
2021/04/15 03:34:09;;;;;;;1.23;0.60;;;4.70;97.00;;;;;;5032694;28;20079;-86
2021/04/15 03:36:42;;;;;;;1.67;0.63;;;4.60;97.20;;;;;;5031649;28;20448;-86
2021/04/15 03:39:18;;;;;;;1.25;0.60;;;4.60;97.30;;;;;;5034551;28;20041;-86
2021/04/15 03:41:47;;;;;;;1.80;0.70;;;4.70;97.30;;;;;;5025736;28;20030;-86
2021/04/15 03:44:18;;;;;;;2.40;0.70;;;4.70;97.20;;;;;;5031316;28;20044;-85
2021/04/15 03:47:05;;;;;;;1.27;0.93;;;4.70;97.20;;;;;;5039716;28;20120;-86
2021/04/15 03:49:42;;;;;;;2.47;0.90;;;4.60;97.10;;;;;;5020871;28;20489;-87
2021/04/15 03:52:16;;;;;;;1.20;0.50;;;4.60;97.10;;;;;;5033906;28;20026;-87
2021/04/15 03:54:48;;;;;;;1.25;0.60;;;4.50;97.30;;;;;;5032753;28;20040;-85
2021/04/15 03:57:17;;;;;;;1.05;0.55;;;4.50;97.40;;;;;;5035254;28;20021;-86
2021/04/15 03:59:57;;;;;;;1.20;0.53;;;4.50;97.40;;;;;;5032665;28;20028;-86
2021/04/15 04:02:34;;;;;;;0.85;0.50;;;4.40;97.50;;;;;;5032210;28;20009;-86
2021/04/15 04:05:07;;;;;;;1.77;0.70;;;4.40;97.60;;;;;;5035309;28;20063;-86
2021/04/15 04:07:47;;;;;;;1.73;0.60;;;4.40;97.60;;;;;;5034550;28;20079;-86
2021/04/15 04:10:52;;;;;;;0.60;0.50;;;4.40;97.60;;;;;;5035765;28;20068;-85
2021/04/15 04:13:35;;;;;;;1.00;0.65;;;4.40;97.60;;;;;;4994140;28;20081;-86
2021/04/15 04:16:23;;;;;;;1.98;0.75;;;4.40;97.70;;;;;;5032113;28;20029;-86
2021/04/15 04:19:23;;;;;;;2.20;0.73;;;4.40;97.70;;;;;;5048411;28;20071;-86
2021/04/15 04:21:53;;;;;;;;;;;4.40;97.70;;;;;;5034606;28;20025;-85
2021/04/15 04:24:56;;;;;;;1.60;0.90;;;4.30;97.60;;;;;;5032305;28;19940;-86
2021/04/15 04:27:23;;;;;;;2.28;0.85;;;4.30;97.70;;;;;;5049716;28;20029;-86
2021/04/15 04:29:58;;;;;;;1.45;0.65;;;4.20;97.70;;;;;;5047559;28;20040;-85
2021/04/15 04:32:26;;;;;;;0.85;0.65;;;4.10;98.00;;;;;;5032369;28;20017;-85
2021/04/15 04:34:55;;;;;;;2.70;0.98;;;4.00;98.00;;;;;;5031657;28;20492;-86
2021/04/15 04:37:35;;;;;;;1.53;0.73;;;4.00;98.10;;;;;;5035429;28;20412;-85
2021/04/15 04:40:04;;;;;;;3.03;0.98;;;4.00;98.10;;;;;;5033310;28;20295;-86
2021/04/15 04:42:34;;;;;;;0.90;0.65;;;3.90;98.30;;;;;;5033117;28;20025;-85
2021/04/15 04:45:00;;;;;;;1.27;0.93;;;3.90;98.40;;;;;;5034923;28;20108;-86
2021/04/15 04:47:47;;;;;;;5.13;1.67;;;3.80;98.40;;;;;;5034947;28;20117;-85
2021/04/15 04:50:26;;;;;;;1.77;1.08;;;3.90;98.40;;;;;;5021785;28;20042;-86
2021/04/15 04:53:03;;;;;;;2.08;0.80;;;3.90;98.50;;;;;;5033826;28;20029;-86
2021/04/15 04:55:43;;;;;;;1.38;0.80;;;3.80;98.40;;;;;;5045063;28;20036;-86
2021/04/15 04:58:16;;;;;;;2.08;1.13;;;3.90;98.40;;;;;;5045549;28;20017;-84
2021/04/15 05:00:45;;;;;;;2.17;1.35;;;3.80;98.40;;;;;;5050049;28;20047;-86
2021/04/15 05:03:16;;;;;;;1.33;0.93;;;3.80;98.40;;;;;;5048571;28;20293;-86
2021/04/15 05:05:42;;;;;;;1.67;1.00;;;3.80;98.40;;;;;;5045091;28;20496;-85
2021/04/15 05:08:17;;;;;;;2.30;1.30;;;3.70;98.40;;;;;;5032415;28;20095;-85
2021/04/15 05:10:43;;;;;;;1.48;0.95;;;3.70;98.50;;;;;;5045153;28;20025;-84
2021/04/15 05:13:11;;;;;;;1.88;0.90;;;3.60;98.50;;;;;;5034176;28;20025;-84
2021/04/15 05:15:39;;;;;;;1.58;0.80;;;3.60;98.50;;;;;;5030409;28;20017;-84
2021/04/15 05:18:07;;;;;;;1.77;1.05;;;3.60;98.60;;;;;;5034780;28;20037;-84
2021/04/15 05:20:33;;;;;;;1.58;1.00;;;3.60;98.70;;;;;;5033275;28;20444;-84
2021/04/15 05:23:11;;;;;;;2.38;1.00;;;3.60;98.70;;;;;;5034788;28;20064;-84
2021/04/15 05:26:01;;;;;;;1.92;1.20;;;3.60;98.70;;;;;;5034617;28;20508;-84
2021/04/15 05:28:30;;;;;;;3.17;1.35;;;3.50;98.80;;;;;;5034257;28;20040;-84
2021/04/15 05:30:58;;;;;;;1.70;1.05;;;3.60;99.00;;;;;;5033210;28;20018;-84
2021/04/15 05:33:26;;;;;;;2.28;1.40;;;3.70;99.00;;;;;;5033966;28;20021;-84
2021/04/15 05:36:11;;;;;;;1.85;1.05;;;3.80;99.00;;;;;;5033242;28;20439;-83
2021/04/15 05:38:41;;;;;;;2.58;1.05;;;3.90;99.00;;;;;;5033903;28;20029;-84
2021/04/15 05:41:09;;;;;;;1.63;0.93;;;4.00;99.00;;;;;;5035042;28;20029;-84
2021/04/15 05:43:48;;;;;;;1.40;1.00;;;4.00;99.00;;;;;;5034774;28;20128;-84
2021/04/15 05:46:28;;;;;;;1.98;1.02;;;4.20;99.00;;;;;;5034024;28;20032;-84
2021/04/15 05:49:00;;;;;;;2.70;1.45;;;4.30;99.00;;;;;;5034254;28;20112;-84
2021/04/15 05:51:40;;;;;;;3.40;1.77;;;4.50;99.10;;;;;;5032901;28;20022;-84
2021/04/15 05:54:10;;;;;;;2.50;1.60;;;4.60;99.00;;;;;;5035034;28;20029;-84
2021/04/15 05:57:03;;;;;;;3.60;1.30;;;4.70;99.00;;;;;;5034652;28;20045;-84
2021/04/15 05:59:34;;;;;;;3.50;2.15;;;4.80;98.90;;;;;;5043363;28;20442;-84
2021/04/15 06:02:37;;;;;;;3.10;1.77;;;4.80;99.00;;;;;;5034548;28;20057;-84
2021/04/15 06:05:14;;;;;;;4.55;2.20;;;4.90;99.10;;;;;;5034488;28;20030;-84
2021/04/15 06:07:42;;;;;;;3.47;2.13;;;4.90;99.30;;;;;;5049717;28;20026;-84
2021/04/15 06:10:09;;;;;;;5.18;2.08;;;4.90;99.50;;;;;;5046432;28;20389;-84
2021/04/15 06:12:48;;;;;;;3.90;2.30;;;5.00;99.50;;;;;;5031665;28;20022;-85
2021/04/15 06:15:46;;;;;;;4.50;2.23;;;5.20;99.50;;;;;;5028673;28;20095;-85
2021/04/15 06:18:21;;;;;;;4.38;1.65;;;5.30;99.40;;;;;;4995820;28;20042;-85
2021/04/15 06:20:57;;;;;;;4.13;1.60;;;5.40;99.50;;;;;;5030932;28;20029;-85
2021/04/15 06:23:31;;;;;;;2.83;1.77;;;5.60;99.30;;;;;;5031339;28;20026;-85
2021/04/15 06:25:58;;;;;;;2.67;1.30;;;5.60;99.20;;;;;;5034234;28;20042;-85
2021/04/15 06:28:29;;;;;;;2.38;1.50;;;5.70;99.20;;;;;;5031864;28;20024;-85
2021/04/15 06:31:14;;;;;;;2.10;1.35;;;5.80;99.20;;;;;;5032733;28;20044;-85
2021/04/15 06:33:41;;;;;;;3.78;1.58;;;5.90;99.10;;;;;;5033987;28;20021;-86
2021/04/15 06:36:51;;;;;;;4.10;1.63;;;5.90;99.20;;;;;;5033879;28;20373;-85
2021/04/15 06:39:35;;;;;;;4.03;2.08;;;6.10;99.00;;;;;;5032672;28;20460;-85
2021/04/15 06:42:42;;;;;;;4.13;2.55;;;6.10;98.90;;;;;;5030575;28;20037;-84
2021/04/15 06:45:36;;;;;;;4.90;2.03;;;6.10;98.90;;;;;;5011365;28;20520;-85
2021/04/15 06:48:35;;;;;;;4.05;2.25;;;6.10;99.00;;;;;;5012553;28;20038;-85
2021/04/15 06:51:12;;;;;;;3.47;2.28;;;6.30;98.90;;;;;;5053768;28;20028;-85
2021/04/15 06:54:08;;;;;;;6.10;2.20;;;6.20;98.80;;;;;;5013626;28;20068;-86
2021/04/15 06:56:39;;;;;;;4.28;2.33;;;6.20;98.80;;;;;;5031915;28;20034;-85
2021/04/15 06:59:33;;;;;;;4.88;2.20;;;6.00;98.90;;;;;;5033390;28;20037;-84
2021/04/15 07:02:27;;;;;;;7.60;2.60;;;6.00;99.00;;;;;;5031735;28;20086;-84
2021/04/15 07:04:59;;;;;;;5.10;2.28;;;5.90;99.20;;;;;;5033034;28;20036;-84
2021/04/15 07:07:33;;;;;;;3.65;1.88;;;5.80;99.40;;;;;;5032205;28;20061;-85
2021/04/15 07:10:20;;;;;;;5.07;2.17;;;5.70;99.60;;;;;;5032829;28;20029;-85
2021/04/15 07:13:02;;;;;;;2.22;1.38;;;5.80;99.60;;;;;;5032323;28;20021;-84
2021/04/15 07:15:33;;;;;;;3.67;1.42;;;5.80;99.60;;;;;;5026383;28;20061;-84
2021/04/15 07:18:53;;;;;;;2.95;1.73;;;5.80;99.70;;;;;;5022536;28;20365;-84
2021/04/15 07:21:47;;;;;;;4.38;1.50;;;5.90;99.50;;;;;;4993708;28;20089;-85
2021/04/15 07:24:35;;;;;;;3.05;1.42;;;5.80;99.70;;;;;;5029621;28;20025;-85
2021/04/15 07:27:16;;;;;;;7.05;1.50;;;5.80;99.90;;;;;;5030440;28;20021;-84
2021/04/15 07:29:50;;;;;;;3.47;1.25;;;5.80;99.90;;;;;;5031157;28;20036;-84
2021/04/15 07:32:35;;;;;;;3.55;1.50;;;5.80;99.90;;;;;;5032296;28;20144;-84
2021/04/15 07:35:38;;;;;;;3.88;1.38;;;5.90;99.90;;;;;;5025254;28;20388;-84
2021/04/15 07:38:20;;;;;;;3.45;1.30;;;6.00;99.70;;;;;;5031008;28;20193;-84
2021/04/15 07:41:19;;;;;;;2.45;1.10;;;6.00;99.60;;;;;;5020302;28;20018;-85
2021/04/15 07:44:06;;;;;;;2.40;1.05;;;6.00;99.40;;;;;;5010903;28;20069;-84
2021/04/15 07:46:55;;;;;;;3.53;1.70;;;6.10;99.30;;;;;;5030495;28;20025;-84
2021/04/15 07:49:49;;;;;;;3.20;1.17;;;6.10;99.30;;;;;;5031648;28;20057;-84
2021/04/15 07:52:36;;;;;;;3.17;1.63;;;6.20;99.30;;;;;;5030844;28;20059;-84
2021/04/15 07:55:14;;;;;;;4.90;1.75;;;6.30;99.40;;;;;;5031816;28;20131;-84
2021/04/15 07:57:42;;;;;;;4.85;2.03;;;6.40;99.20;;;;;;5023368;28;20124;-85
2021/04/15 08:00:43;;;;;;;4.43;2.10;;;6.60;99.50;;;;;;5032737;28;20112;-85
2021/04/15 08:03:42;;;;;;;6.32;2.30;;;6.70;99.20;;;;;;5032425;28;20105;-84
2021/04/15 08:06:24;;;;;;;3.28;1.85;;;6.80;98.30;;;;;;5031351;28;20091;-85
2021/04/15 08:09:09;;;;;;;3.67;1.25;;;6.90;97.80;;;;;;5032498;28;20037;-85
2021/04/15 08:12:15;;;;;;;6.70;2.00;;;6.90;97.30;;;;;;5032510;28;20028;-85
2021/04/15 08:14:57;;;;;;;5.47;1.20;;;6.90;96.90;;;;;;5032522;28;20032;-84
2021/04/15 08:17:57;;;;;;;8.50;1.75;;;6.90;96.80;;;;;;5012708;28;20429;-84
2021/04/15 08:20:37;;;;;;;3.33;1.05;;;7.00;95.40;;;;;;5004041;28;20465;-83
2021/04/15 08:23:21;;;;;;;7.85;2.13;;;7.00;95.00;;;;;;5012056;28;20120;-84
2021/04/15 08:26:25;;;;;;;3.60;1.00;;;7.10;94.90;;;;;;5012725;28;20079;-84
2021/04/15 08:29:05;;;;;;;4.10;1.48;;;7.20;95.00;;;;;;5012583;28;20467;-84
2021/04/15 08:31:47;;;;;;;3.80;1.23;;;7.20;94.50;;;;;;5012741;28;20033;-85
2021/04/15 08:34:31;;;;;;;4.00;1.30;;;7.20;94.70;;;;;;5011147;28;20501;-85
2021/04/15 08:37:17;;;;;;;2.75;1.58;;;7.30;94.70;;;;;;5014295;28;20026;-85
2021/04/15 08:40:02;;;;;;;3.08;1.13;;;7.30;94.70;;;;;;5031507;28;20116;-84
2021/04/15 08:43:02;;;;;;;3.33;1.33;;;7.40;94.80;;;;;;5050598;28;20017;-84
2021/04/15 08:45:35;;;;;;;4.20;1.27;;;7.50;94.80;;;;;;5055805;28;20033;-85
2021/04/15 08:48:24;;;;;;;2.88;1.60;;;7.60;94.50;;;;;;5054493;28;20090;-85
2021/04/15 08:51:04;;;;;;;3.53;1.35;;;7.70;94.20;;;;;;5055929;28;20135;-85
2021/04/15 08:53:55;;;;;;;4.90;2.10;;;7.90;93.40;;;;;;5055769;28;20567;-85
2021/04/15 08:56:31;;;;;;;4.95;1.50;;;8.10;93.20;;;;;;5054644;28;20037;-85
2021/04/15 08:59:14;;;;;;;3.97;1.80;;;8.30;92.90;;;;;;5054632;28;20035;-85
2021/04/15 09:01:48;;;;;;;4.22;1.50;;;8.60;92.90;;;;;;5055905;28;20078;-84
2021/04/15 09:04:32;;;;;;;7.72;2.05;;;8.80;91.00;;;;;;5055551;28;20110;-85
2021/04/15 09:07:12;;;;;;;5.57;1.52;;;9.00;90.90;;;;;;5055651;28;20021;-85
2021/04/15 09:10:14;;;;;;;3.67;1.65;;;8.90;88.90;;;;;;5055546;28;20029;-84
2021/04/15 09:12:54;;;;;;;4.90;1.45;;;8.80;87.20;;;;;;5054294;28;20017;-85
2021/04/15 09:16:06;;;;;;;2.50;1.50;;;8.60;87.70;;;;;;5051206;28;20030;-85
2021/04/15 09:18:38;;;;;;;3.58;1.40;;;8.50;88.40;;;;;;5034532;28;20033;-84
2021/04/15 09:21:21;;;;;;;4.63;1.77;;;8.40;89.30;;;;;;5032012;28;20484;-85
2021/04/15 09:24:24;;;;;;;6.72;2.55;;;8.40;87.80;;;;;;5050735;28;20029;-85
2021/04/15 09:27:21;;;;;;;5.00;1.88;;;8.30;87.10;;;;;;5044502;28;20071;-85
2021/04/15 09:29:51;;;;;;;2.60;1.70;;;8.30;88.30;;;;;;5034237;28;20033;-86
2021/04/15 09:32:38;;;;;;;5.45;1.73;;;8.20;89.00;;;;;;5034048;28;20028;-86
2021/04/15 09:35:29;;;;;;;6.07;1.52;;;8.20;89.10;;;;;;5033706;28;20029;-85
2021/04/15 09:38:13;;;;;;;2.33;1.17;;;8.20;89.40;;;;;;5035150;28;20022;-85
2021/04/15 09:41:16;;;;;;;5.32;1.63;;;8.30;88.90;;;;;;5035021;28;20022;-85
2021/04/15 09:43:41;;;;;;;5.82;1.60;;;8.50;88.10;;;;;;5034804;28;20554;-86
2021/04/15 09:46:22;;;;;;;4.72;1.60;;;9.40;87.50;;;;;;5033684;28;20017;-85
2021/04/15 09:49:23;;;;;;;2.55;1.30;;;11.40;81.90;;;;;;5032893;28;20091;-85
2021/04/15 09:52:16;;;;;;;1.80;0.57;;;12.90;78.50;;;;;;5034797;28;20018;-84
2021/04/15 09:55:20;;;;;;;3.22;1.20;;;13.60;72.30;;;;;;5020991;28;20087;-85
2021/04/15 09:58:10;;;;;;;4.00;0.60;;;13.80;69.40;;;;;;5034615;28;20152;-86
2021/04/15 10:00:38;;;;;;;3.03;0.70;;;13.80;62.70;;;;;;5026294;28;20112;-85
2021/04/15 10:03:34;;;;;;;2.95;0.90;;;13.40;64.00;;;;;;5033357;28;20029;-85
2021/04/15 10:06:16;;;;;;;3.80;1.05;;;13.40;61.40;;;;;;5034174;28;20469;-87
2021/04/15 10:09:11;;;;;;;2.72;0.70;;;13.10;63.20;;;;;;5027278;28;20080;-82
2021/04/15 10:12:05;;;;;;;1.77;0.60;;;13.00;60.60;;;;;;5031722;28;20018;-82
2021/04/15 10:14:36;;;;;;;1.52;0.80;;;13.60;61.70;;;;;;5039197;28;20056;-83
2021/04/15 10:17:20;;;;;;;4.13;1.20;;;14.20;60.30;;;;;;5022164;28;20083;-81
2021/04/15 10:20:14;;;;;;;2.55;0.98;;;14.60;57.10;;;;;;5007881;28;20032;-82
2021/04/15 10:22:48;;;;;;;1.98;0.70;;;14.70;55.60;;;;;;5005738;28;20032;-84
2021/04/15 10:25:22;;;;;;;2.03;0.90;;;14.70;55.90;;;;;;5002283;28;20022;-84
2021/04/15 10:28:21;;;;;;;1.92;0.80;;;14.20;55.60;;;;;;5011517;28;20039;-84
2021/04/15 10:31:18;;;;;;;1.58;0.60;;;14.70;56.90;;;;;;5033792;28;20033;-84
2021/04/15 10:34:22;;;;;;;2.05;0.75;;;15.80;57.00;;;;;;5032371;28;20025;-85
2021/04/15 10:37:25;;;;;;;1.95;0.70;;;15.50;51.50;;;;;;5032253;28;20025;-84
2021/04/15 10:40:05;;;;;;;3.20;0.80;;;14.60;52.40;;;;;;5026468;28;20048;-85
2021/04/15 10:43:08;;;;;;;1.77;0.70;;;14.20;54.10;;;;;;5009149;28;20076;-87
2021/04/15 10:45:58;;;;;;;2.92;0.60;;;15.10;54.60;;;;;;5032546;28;20086;-89
2021/04/15 10:48:42;;;;;;;1.75;0.60;;;17.30;50.70;;;;;;5032857;28;20056;-91
2021/04/15 10:51:35;;;;;;;1.88;0.73;;;17.50;49.60;;;;;;5031498;28;20377;-85
2021/04/15 10:54:23;;;;;;;1.98;0.73;;;16.50;50.00;;;;;;5036797;28;20033;-90
2021/04/15 10:57:13;;;;;;;1.58;0.60;;;15.50;50.90;;;;;;5032954;28;20031;-87
2021/04/15 10:59:40;;;;;;;3.33;0.57;;;14.90;52.60;;;;;;5051221;28;20021;-88
2021/04/15 11:02:28;;;;;;;2.97;0.80;;;14.40;54.60;;;;;;5051868;28;20025;-86
2021/04/15 11:04:56;;;;;;;2.35;0.80;;;13.80;55.30;;;;;;5051834;28;20489;-88
2021/04/15 11:07:34;;;;;;;1.85;0.82;;;13.20;56.40;;;;;;5051949;28;20021;-85
2021/04/15 11:10:10;;;;;;;1.88;0.93;;;13.40;57.50;;;;;;5053197;28;20055;-86
2021/04/15 11:12:36;;;;;;;1.40;0.70;;;14.90;55.60;;;;;;5051955;28;20116;-85
2021/04/15 11:15:11;;;;;;;1.30;0.60;;;15.10;53.20;;;;;;5049931;28;20496;-85
2021/04/15 11:17:45;;;;;;;1.55;0.60;;;15.90;52.00;;;;;;5031906;28;20032;-85
2021/04/15 11:20:19;;;;;;;1.10;0.60;;;15.70;51.80;;;;;;5031919;28;20053;-86
2021/04/15 11:23:05;;;;;;;2.10;0.70;;;15.10;52.80;;;;;;5031735;28;20108;-88
2021/04/15 11:25:41;;;;;;;1.25;0.57;;;15.40;54.10;;;;;;5027657;28;20076;-87
2021/04/15 11:28:18;;;;;;;1.33;0.52;;;16.20;53.50;;;;;;5033003;28;20045;-87
2021/04/15 11:30:53;;;;;;;1.02;0.50;;;18.00;52.10;;;;;;5049018;28;20044;-87
2021/04/15 11:33:36;;;;;;;0.57;0.40;;;19.60;47.60;;;;;;5046178;28;20482;-87
2021/04/15 11:36:09;;;;;;;0.85;0.57;;;19.20;47.20;;;;;;5028819;28;20029;-87
2021/04/15 11:38:35;;;;;;;0.85;0.40;;;19.30;48.00;;;;;;5029559;28;20029;-86
2021/04/15 11:41:10;;;;;;;1.05;0.55;;;18.40;47.80;;;;;;5025231;28;20040;-80
2021/04/15 11:43:37;;;;;;;1.92;0.95;;;17.30;47.70;;;;;;5032210;28;20037;-79
2021/04/15 11:46:22;;;;;;;1.35;0.50;;;16.40;48.60;;;;;;5032358;28;20025;-78
2021/04/15 11:49:09;;;;;;;1.90;0.70;;;15.60;50.00;;;;;;5028514;28;20519;-79
2021/04/15 11:51:40;;;;;;;1.67;0.60;;;14.80;50.00;;;;;;5025435;28;20022;-79
2021/04/15 11:54:13;;;;;;;1.48;0.73;;;14.20;51.60;;;;;;5028465;28;20041;-79
2021/04/15 11:56:39;;;;;;;1.25;0.73;;;13.90;51.40;;;;;;5032393;28;20099;-79
2021/04/15 11:59:28;;;;;;;3.72;0.90;;;13.60;52.30;;;;;;5022853;28;20072;-78
2021/04/15 12:02:11;;;;;;;1.80;0.77;;;13.60;52.80;;;;;;5029596;28;20048;-78
2021/04/15 12:04:36;;;;;;;1.80;0.80;;;13.40;52.80;;;;;;5031249;28;20100;-78
2021/04/15 12:07:22;;;;;;;1.77;0.80;;;13.50;52.90;;;;;;5032114;28;20104;-78
2021/04/15 12:09:49;;;;;;;1.60;0.80;;;13.80;52.50;;;;;;5036891;28;20030;-78
2021/04/15 12:12:33;;;;;;;1.15;0.60;;;15.60;50.00;;;;;;5027656;28;20018;-78
2021/04/15 12:15:00;;;;;;;1.08;0.47;;;16.30;46.10;;;;;;5025488;28;20025;-78
2021/04/15 12:17:33;;;;;;;1.38;0.98;;;16.50;47.00;;;;;;5031856;28;20049;-78
2021/04/15 12:20:26;;;;;;;0.55;0.40;;;16.40;47.80;;;;;;5036107;28;20052;-78
2021/04/15 12:23:07;;;;;;;1.48;0.60;;;16.30;48.60;;;;;;5034246;28;20088;-78
2021/04/15 12:25:39;;;;;;;1.15;0.60;;;16.10;49.40;;;;;;5034102;28;20113;-78
2021/04/15 12:28:35;;;;;;;0.85;0.50;;;15.90;46.50;;;;;;5035751;28;20064;-78
2021/04/15 12:31:11;;;;;;;1.98;0.60;;;15.90;45.50;;;;;;5032960;28;20441;-79
2021/04/15 12:34:17;;;;;;;1.45;0.40;;;15.90;44.00;;;;;;5034525;28;20022;-79
2021/04/15 12:36:56;;;;;;;1.52;0.55;;;15.80;44.00;;;;;;5010862;28;20139;-78
2021/04/15 12:39:25;;;;;;;2.15;0.50;;;15.80;44.50;;;;;;5041178;28;20022;-79
2021/04/15 12:41:51;;;;;;;;;;;16.50;45.30;;;;;;5034536;28;20524;-78
2021/04/15 12:44:25;;;;;;;2.25;0.85;;;18.10;45.10;;;;;;5042251;28;19971;-79
2021/04/15 12:46:54;;;;;;;2.45;0.88;;;20.10;39.10;;;;;;5033809;28;20028;-78
2021/04/15 12:49:23;;;;;;;2.10;0.82;;;21.40;36.60;;;;;;5032712;28;20032;-75
2021/04/15 12:51:55;;;;;;;2.75;0.80;;;21.50;36.70;;;;;;5027411;28;20025;-76
2021/04/15 12:54:35;;;;;;;1.75;0.60;;;22.40;34.40;;;;;;5032738;28;20068;-78
2021/04/15 12:57:04;;;;;;;2.03;0.60;;;23.40;34.00;;;;;;5031198;28;20021;-78
2021/04/15 12:59:35;;;;;;;1.65;0.60;;;24.20;30.00;;;;;;5034870;28;20057;-78
2021/04/15 13:02:02;;;;;;;1.42;0.73;;;24.70;30.30;;;;;;5032665;28;20033;-78
2021/04/15 13:04:30;;;;;;;1.02;0.70;;;24.90;30.30;;;;;;5025332;28;20029;-78
2021/04/15 13:06:59;;;;;;;1.40;0.80;;;24.40;30.70;;;;;;5033524;28;20059;-78
2021/04/15 13:09:42;;;;;;;2.23;0.77;;;24.10;29.90;;;;;;5035102;28;20477;-78
2021/04/15 13:12:31;;;;;;;0.80;0.50;;;23.70;29.70;;;;;;5033915;28;20035;-78
2021/04/15 13:14:59;;;;;;;;;;;22.50;31.40;;;;;;5034449;28;20026;-78
2021/04/15 13:17:36;;;;;;;2.13;1.23;;;21.40;33.30;;;;;;5050322;28;20020;-77
2021/04/15 13:20:34;;;;;;;2.05;0.70;;;20.10;33.80;;;;;;5033769;28;20026;-77
2021/04/15 13:23:09;;;;;;;1.00;0.63;;;19.10;36.10;;;;;;5032741;28;20028;-77
2021/04/15 13:25:36;;;;;;;0.93;0.55;;;18.40;37.80;;;;;;5033459;28;20397;-77
2021/04/15 13:28:07;;;;;;;1.58;0.80;;;18.00;38.80;;;;;;5034676;28;20026;-76
2021/04/15 13:30:54;;;;;;;2.78;1.10;;;17.50;38.70;;;;;;5033889;28;20499;-77
2021/04/15 13:33:31;;;;;;;2.15;0.85;;;17.10;39.30;;;;;;5033679;28;20025;-79
2021/04/15 13:36:00;;;;;;;1.80;0.90;;;16.80;40.20;;;;;;5034697;28;20021;-77
2021/04/15 13:41:11;;;;;;;2.17;1.20;;;16.10;40.50;;;;;;5054312;28;20040;-77
2021/04/15 13:43:55;;;;;;;1.75;0.93;;;15.90;40.80;;;;;;5053143;28;20040;-77
2021/04/15 13:49:00;;;;;;;2.45;1.30;;;15.80;41.10;;;;;;5054448;28;20036;-77
2021/04/15 13:51:27;;;;;;;0.80;0.70;;;15.90;41.90;;;;;;5053146;28;20112;-77
2021/04/15 13:54:01;;;;;;;3.65;1.92;;;15.70;42.60;;;;;;5053190;28;20391;-77
2021/04/15 13:56:54;;;;;;;1.95;1.30;;;15.90;43.20;;;;;;5054322;28;20021;-77
2021/04/15 13:59:49;;;;;;;2.63;1.20;;;16.40;42.80;;;;;;5053039;28;20035;-77
2021/04/15 14:02:14;;;;;;;1.98;1.00;;;17.40;41.70;;;;;;5054313;28;20063;-77